Terminal Aerodrome Forecast
Issued by NWS Austin/San Antonio, TX

Home | Current Version | Previous Version | Text Only | Print | Product List | Glossary On
Versions: 1 2 3 4 5 6 7 8 9 10 11 12 13 14 15 16 17 18 19 20 21 22 23 24
000
FTUS44 KEWX 181100
TAFSAT
TAF
KSAT 181133Z 1812/1918 02004KT 3/4SM -DZ BR OVC003
     FM181600 02004KT 2SM BR OVC007
     FM181800 02005KT 4SM BR OVC012
     FM182000 03003KT P6SM OVC025
     FM190200 03005KT P6SM VCSH OVC010
     FM190500 03006KT 3SM -SHRA BR OVC007 PROB30 1906/1912 2SM TSRA
      BR BKN005 OVC035CB
     FM191500 02007KT 5SM BR VCSH OVC008=

USA.gov is the U.S. government's official web portal to all federal, state and local government web resources and services.